Terminal Aerodrome Forecast
Issued by NWS

Home | Current Version | Previous Version | Text Only | Print | Product List | Glossary On
Versions: 1 2 3 4 5 6 7 8 9 10 11 12 13 14 15 16 17 18
000
FTUS43 KGRB 262300
TAFATW
TAF
KATW 262340Z 2700/2724 27010KT P6SM SCT250
     FM270200 23005KT P6SM SCT150
      TEMPO 2708/2712 4SM BR
     FM271500 27011KT P6SM VCSH SCT040 BKN060
      TEMPO 2716/2720 3SM -SHRA BR SCT020 BKN035=

USA.gov is the U.S. government's official web portal to all federal, state and local government web resources and services.